Time;durP1;ratioP1;P1;durP2;ratioP2;P2;SDS_P1;SDS_P2;PMS_P1;PMS_P2;Temp;Humidity;BMP_temperature;BMP_pressure;BME280_temperature;BME280_humidity;BME280_pressure;Samples;Min_cycle;Max_cycle;Signal;HPM_P1;HPM_P2
2023/12/11 00:02:12;;;;;;;87.33;41.13;;;;;;;;;;4433336;32;318295;-72
2023/12/11 00:04:39;;;;;;;78.30;42.43;;;;;;;;;;4422815;32;318267;-73
2023/12/11 00:07:06;;;;;;;67.13;37.13;;;;;;;;;;4433243;32;318259;-73
2023/12/11 00:09:33;;;;;;;57.60;31.97;;;;;;;;;;4421679;32;318374;-72
2023/12/11 00:12:01;;;;;;;50.63;31.07;;;;;;;;;;4433095;32;318301;-74
2023/12/11 00:14:29;;;;;;;50.80;28.43;;;;;;;;;;4431655;32;318346;-72
2023/12/11 00:16:56;;;;;;;60.77;34.53;;;;;;;;;;4419902;32;416175;-72
2023/12/11 00:19:23;;;;;;;63.57;34.63;;;;;;;;;;4432729;32;317778;-73
2023/12/11 00:21:50;;;;;;;75.30;40.50;;;;;;;;;;4422635;32;318036;-72
2023/12/11 00:24:17;;;;;;;76.10;40.20;;;;;;;;;;4432834;32;318295;-73
2023/12/11 00:26:44;;;;;;;71.67;38.97;;;;;;;;;;4422613;32;318169;-73
2023/12/11 00:29:13;;;;;;;67.17;39.00;;;;;;;;;;4432743;32;318172;-73
2023/12/11 00:31:40;;;;;;;68.50;37.43;;;;;;;;;;4420978;32;336246;-72
2023/12/11 00:34:08;;;;;;;61.07;34.63;;;;;;;;;;4430498;32;352599;-72
2023/12/11 00:36:34;;;;;;;59.00;33.13;;;;;;;;;;4421281;32;318190;-72
2023/12/11 00:39:03;;;;;;;64.20;34.33;;;;;;;;;;4431392;32;317576;-73
2023/12/11 00:41:30;;;;;;;65.87;34.83;;;;;;;;;;4422906;32;318344;-71
2023/12/11 00:43:57;;;;;;;74.03;38.03;;;;;;;;;;4432326;32;318192;-72
2023/12/11 00:46:26;;;;;;;61.13;36.80;;;;;;;;;;4432503;32;318263;-73
2023/12/11 00:48:55;;;;;;;63.40;36.90;;;;;;;;;;4420067;32;318113;-72
2023/12/11 00:51:22;;;;;;;66.47;38.20;;;;;;;;;;4432561;32;317673;-74
2023/12/11 00:53:49;;;;;;;72.43;39.73;;;;;;;;;;4422303;32;318325;-73
2023/12/11 00:56:16;;;;;;;72.13;39.33;;;;;;;;;;4432465;32;318078;-74
2023/12/11 00:58:44;;;;;;;71.77;40.33;;;;;;;;;;4421163;32;350599;-72
2023/12/11 01:01:11;;;;;;;71.93;40.07;;;;;;;;;;4431264;32;318534;-74
2023/12/11 01:03:39;;;;;;;70.27;36.87;;;;;;;;;;4420867;32;318525;-73
2023/12/11 01:06:07;;;;;;;66.70;39.13;;;;;;;;;;4432601;32;318283;-72
2023/12/11 01:08:38;;;;;;;72.30;39.03;;;;;;;;;;4420918;32;318357;-72
2023/12/11 01:11:05;;;;;;;71.93;40.00;;;;;;;;;;4432376;32;318262;-72
2023/12/11 01:13:32;;;;;;;69.47;37.43;;;;;;;;;;4422083;32;318566;-72
2023/12/11 01:15:59;;;;;;;67.00;37.90;;;;;;;;;;4432329;32;318376;-73
2023/12/11 01:18:27;;;;;;;64.70;35.80;;;;;;;;;;4432181;32;318658;-72
2023/12/11 01:20:55;;;;;;;69.20;39.50;;;;;;;;;;4419063;32;417892;-72
2023/12/11 01:23:22;;;;;;;59.10;37.03;;;;;;;;;;4432347;32;318348;-72
2023/12/11 01:25:49;;;;;;;64.03;36.57;;;;;;;;;;4421561;32;334537;-72
2023/12/11 01:28:16;;;;;;;61.20;33.77;;;;;;;;;;4430437;32;337082;-72
2023/12/11 01:30:43;;;;;;;60.60;33.60;;;;;;;;;;4419758;32;322725;-72
2023/12/11 01:33:10;;;;;;;92.47;54.27;;;;;;;;;;4431110;32;347969;-73
2023/12/11 01:35:37;;;;;;;66.33;38.97;;;;;;;;;;4421772;32;320771;-72
2023/12/11 01:38:06;;;;;;;78.77;47.20;;;;;;;;;;4431954;32;318083;-72
2023/12/11 01:40:33;;;;;;;70.17;41.47;;;;;;;;;;4421210;32;318434;-72
2023/12/11 01:43:12;;;;;;;69.17;39.57;;;;;;;;;;4430370;32;333637;-73
2023/12/11 01:45:40;;;;;;;63.40;35.47;;;;;;;;;;4421747;32;318405;-72
2023/12/11 01:48:07;;;;;;;61.40;31.80;;;;;;;;;;4430765;32;318510;-72
2023/12/11 01:50:34;;;;;;;52.43;29.27;;;;;;;;;;4421830;32;318502;-72
2023/12/11 01:53:02;;;;;;;45.07;23.07;;;;;;;;;;4432128;32;319168;-72
2023/12/11 01:55:32;;;;;;;42.33;23.90;;;;;;;;;;4422346;32;317668;-71
2023/12/11 01:57:59;;;;;;;49.93;24.40;;;;;;;;;;4431122;32;318544;-72
2023/12/11 02:00:27;;;;;;;50.07;26.30;;;;;;;;;;4432264;32;318471;-73
2023/12/11 02:02:54;;;;;;;50.37;24.60;;;;;;;;;;4418484;32;389619;-72
2023/12/11 02:05:21;;;;;;;42.63;22.03;;;;;;;;;;4432122;32;318421;-72
2023/12/11 02:07:48;;;;;;;46.10;21.67;;;;;;;;;;4420660;32;318283;-74
2023/12/11 02:10:15;;;;;;;39.33;21.20;;;;;;;;;;4427033;32;318361;-72
2023/12/11 02:12:44;;;;;;;33.37;20.53;;;;;;;;;;4407462;32;317858;-72
2023/12/11 02:15:11;;;;;;;36.13;20.80;;;;;;;;;;4430630;32;318501;-72
2023/12/11 02:17:38;;;;;;;28.03;16.00;;;;;;;;;;4420244;32;317580;-73
2023/12/11 02:20:06;;;;;;;26.53;14.63;;;;;;;;;;4431863;32;318725;-73
2023/12/11 02:22:33;;;;;;;30.27;16.20;;;;;;;;;;4421118;32;318503;-71
2023/12/11 02:25:04;;;;;;;30.63;18.20;;;;;;;;;;4432047;32;318453;-73
2023/12/11 02:27:32;;;;;;;30.77;18.30;;;;;;;;;;4420048;32;318649;-71
2023/12/11 02:29:59;;;;;;;30.97;16.97;;;;;;;;;;4431651;32;319154;-73
2023/12/11 02:32:26;;;;;;;30.13;18.60;;;;;;;;;;4431548;32;317672;-73
2023/12/11 02:34:53;;;;;;;29.07;19.27;;;;;;;;;;4423999;32;318322;-72
2023/12/11 02:37:20;;;;;;;31.33;18.13;;;;;;;;;;4434631;32;318400;-74
2023/12/11 02:39:47;;;;;;;27.93;17.50;;;;;;;;;;4423915;32;318417;-73
2023/12/11 02:42:14;;;;;;;34.27;20.97;;;;;;;;;;4434437;32;318254;-73
2023/12/11 02:44:43;;;;;;;36.87;22.73;;;;;;;;;;4423874;32;318278;-74
2023/12/11 02:47:10;;;;;;;46.00;23.93;;;;;;;;;;4433193;32;317825;-74
2023/12/11 02:49:37;;;;;;;35.73;21.77;;;;;;;;;;4422399;32;317763;-71
2023/12/11 02:52:04;;;;;;;43.63;23.57;;;;;;;;;;4432175;32;346134;-73
2023/12/11 02:54:31;;;;;;;76.23;37.20;;;;;;;;;;4422817;32;319080;-71
2023/12/11 02:56:58;;;;;;;41.97;23.77;;;;;;;;;;4434280;32;318931;-73
2023/12/11 02:59:25;;;;;;;48.43;27.63;;;;;;;;;;4433251;32;318590;-73
2023/12/11 03:01:53;;;;;;;51.40;29.17;;;;;;;;;;4422056;32;318786;-73
2023/12/11 03:04:20;;;;;;;53.57;28.40;;;;;;;;;;4433981;32;318973;-73
2023/12/11 03:06:47;;;;;;;45.37;26.63;;;;;;;;;;4423688;32;318504;-74
2023/12/11 03:09:14;;;;;;;46.57;26.47;;;;;;;;;;4433478;32;319359;-73
2023/12/11 03:11:41;;;;;;;45.70;26.13;;;;;;;;;;4423681;32;319056;-73
2023/12/11 03:14:08;;;;;;;35.27;17.13;;;;;;;;;;4433675;32;318477;-74
2023/12/11 03:16:35;;;;;;;31.90;20.00;;;;;;;;;;4423739;32;318542;-74
2023/12/11 03:19:04;;;;;;;32.33;20.63;;;;;;;;;;4433732;32;318508;-73
2023/12/11 03:21:31;;;;;;;31.67;17.90;;;;;;;;;;4421141;32;318538;-72
2023/12/11 03:23:58;;;;;;;36.03;18.00;;;;;;;;;;4432462;32;317799;-74
2023/12/11 03:26:24;;;;;;;30.90;17.27;;;;;;;;;;4433709;32;318625;-73
2023/12/11 03:28:52;;;;;;;31.30;18.13;;;;;;;;;;4423119;32;318541;-73
2023/12/11 03:31:18;;;;;;;18.30;12.47;;;;;;;;;;4433637;32;317812;-73
2023/12/11 03:33:45;;;;;;;20.17;12.37;;;;;;;;;;4423238;32;317764;-74
2023/12/11 03:36:14;;;;;;;41.63;21.73;;;;;;;;;;4433587;32;318160;-73
2023/12/11 03:38:41;;;;;;;39.47;22.20;;;;;;;;;;4421946;32;318407;-72
2023/12/11 03:41:08;;;;;;;46.17;21.33;;;;;;;;;;4432388;32;320960;-73
2023/12/11 03:43:35;;;;;;;36.40;21.60;;;;;;;;;;4421737;32;317614;-73
2023/12/11 03:46:03;;;;;;;34.73;20.33;;;;;;;;;;4432171;32;317613;-73
2023/12/11 03:48:30;;;;;;;33.70;22.20;;;;;;;;;;4421109;32;318281;-71
2023/12/11 03:51:00;;;;;;;37.53;23.43;;;;;;;;;;4432065;32;318317;-72
2023/12/11 03:53:28;;;;;;;34.10;23.03;;;;;;;;;;4432039;32;318328;-72
2023/12/11 03:55:55;;;;;;;35.57;22.67;;;;;;;;;;4420015;32;417513;-72
2023/12/11 03:58:22;;;;;;;46.43;22.87;;;;;;;;;;4433280;32;318699;-73
2023/12/11 04:00:49;;;;;;;43.43;23.87;;;;;;;;;;4422938;32;318687;-72
2023/12/11 04:03:16;;;;;;;38.30;23.47;;;;;;;;;;4433127;32;317645;-72
2023/12/11 04:05:43;;;;;;;38.83;25.30;;;;;;;;;;4422698;32;317898;-71
2023/12/11 04:08:10;;;;;;;44.07;26.17;;;;;;;;;;4432766;32;317724;-72
2023/12/11 04:10:39;;;;;;;46.77;24.83;;;;;;;;;;4422635;32;318467;-70
2023/12/11 04:13:06;;;;;;;37.93;23.70;;;;;;;;;;4433129;32;317687;-72
2023/12/11 04:15:34;;;;;;;42.80;23.40;;;;;;;;;;4422677;32;318242;-71
2023/12/11 04:18:01;;;;;;;52.03;27.27;;;;;;;;;;4430439;32;356381;-74
2023/12/11 04:20:28;;;;;;;56.03;34.17;;;;;;;;;;4431738;32;318311;-70
2023/12/11 04:22:55;;;;;;;66.07;36.53;;;;;;;;;;4418564;32;417386;-73
2023/12/11 04:25:22;;;;;;;55.27;34.33;;;;;;;;;;4430502;32;318218;-70
2023/12/11 04:27:50;;;;;;;46.30;30.33;;;;;;;;;;4420636;32;337873;-72
2023/12/11 04:30:17;;;;;;;54.93;34.53;;;;;;;;;;4432637;32;318389;-70
2023/12/11 04:32:44;;;;;;;61.50;37.57;;;;;;;;;;4421215;32;318408;-70
2023/12/11 04:35:12;;;;;;;60.37;40.83;;;;;;;;;;4432823;32;318448;-71
2023/12/11 04:37:39;;;;;;;57.57;39.10;;;;;;;;;;4421213;32;318421;-71
2023/12/11 04:40:07;;;;;;;56.67;35.97;;;;;;;;;;4431182;32;318362;-70
2023/12/11 04:42:34;;;;;;;48.90;30.30;;;;;;;;;;4422254;32;317660;-71
2023/12/11 04:45:03;;;;;;;56.63;31.23;;;;;;;;;;4431659;32;318315;-71
2023/12/11 04:47:30;;;;;;;56.03;30.83;;;;;;;;;;4421808;32;338283;-71
2023/12/11 04:49:56;;;;;;;73.20;41.07;;;;;;;;;;4432091;32;318338;-73
2023/12/11 04:52:24;;;;;;;81.20;40.93;;;;;;;;;;4432519;32;318332;-71
2023/12/11 04:54:51;;;;;;;82.87;42.37;;;;;;;;;;4422191;32;318350;-70
2023/12/11 04:57:18;;;;;;;71.37;40.70;;;;;;;;;;4432214;32;317853;-70
2023/12/11 04:59:45;;;;;;;71.00;37.87;;;;;;;;;;4420830;32;318366;-71
2023/12/11 05:02:14;;;;;;;65.57;35.30;;;;;;;;;;4431360;32;317679;-71
2023/12/11 05:04:41;;;;;;;55.10;31.57;;;;;;;;;;4421928;32;318347;-70
2023/12/11 05:07:08;;;;;;;54.00;31.27;;;;;;;;;;4432662;32;318226;-72
2023/12/11 05:09:35;;;;;;;69.20;36.80;;;;;;;;;;4418609;32;319012;-70
2023/12/11 05:12:02;;;;;;;68.20;38.17;;;;;;;;;;4432383;32;318055;-70
2023/12/11 05:14:29;;;;;;;61.77;36.80;;;;;;;;;;4421870;32;318257;-70
2023/12/11 05:16:56;;;;;;;60.37;32.63;;;;;;;;;;4432310;32;318671;-70
2023/12/11 05:19:24;;;;;;;53.97;33.23;;;;;;;;;;4432082;32;318919;-72
2023/12/11 05:21:52;;;;;;;50.70;31.13;;;;;;;;;;4422072;32;318686;-70
2023/12/11 05:24:19;;;;;;;49.37;30.83;;;;;;;;;;4430938;32;318037;-70
2023/12/11 05:26:46;;;;;;;54.80;34.70;;;;;;;;;;4420933;32;319006;-70
2023/12/11 05:29:13;;;;;;;60.53;37.60;;;;;;;;;;4430629;32;318016;-71
2023/12/11 05:31:43;;;;;;;61.37;38.57;;;;;;;;;;4420739;32;319463;-70
2023/12/11 05:34:10;;;;;;;59.23;36.63;;;;;;;;;;4430438;32;318394;-71
2023/12/11 05:36:38;;;;;;;76.73;46.27;;;;;;;;;;4420667;32;318759;-71
2023/12/11 05:39:06;;;;;;;116.93;66.53;;;;;;;;;;4431875;32;318566;-71
2023/12/11 05:41:33;;;;;;;120.17;67.87;;;;;;;;;;4421493;32;319972;-70
2023/12/11 05:44:00;;;;;;;123.53;66.50;;;;;;;;;;4431380;32;319249;-70
2023/12/11 05:46:27;;;;;;;98.10;52.70;;;;;;;;;;4421955;32;319954;-72
2023/12/11 05:48:55;;;;;;;86.10;49.80;;;;;;;;;;4431174;32;318823;-68
2023/12/11 05:51:22;;;;;;;70.30;43.40;;;;;;;;;;4429743;32;343164;-70
2023/12/11 05:53:51;;;;;;;73.40;38.47;;;;;;;;;;4421521;32;318876;-68
2023/12/11 05:56:18;;;;;;;58.37;34.80;;;;;;;;;;4430467;32;318739;-67
2023/12/11 05:58:45;;;;;;;53.90;30.93;;;;;;;;;;4421290;32;318752;-68
2023/12/11 06:01:12;;;;;;;60.43;32.47;;;;;;;;;;4431096;32;317800;-71
2023/12/11 06:03:40;;;;;;;96.97;52.10;;;;;;;;;;4414610;32;318510;-70
2023/12/11 06:06:15;;;;;;;75.17;49.03;;;;;;;;;;4431417;32;323123;-70
2023/12/11 06:08:42;;;;;;;59.70;38.87;;;;;;;;;;4422566;32;318573;-69
2023/12/11 06:11:11;;;;;;;58.20;35.60;;;;;;;;;;4434174;32;318842;-70
2023/12/11 06:13:38;;;;;;;62.10;38.87;;;;;;;;;;4422820;32;318696;-69
2023/12/11 06:16:06;;;;;;;71.07;41.83;;;;;;;;;;4433132;32;318771;-70
2023/12/11 06:18:33;;;;;;;70.53;47.20;;;;;;;;;;4422823;32;318775;-69
2023/12/11 06:21:00;;;;;;;93.10;60.30;;;;;;;;;;4432980;32;318181;-69
2023/12/11 06:23:27;;;;;;;82.67;56.10;;;;;;;;;;4433089;32;318726;-70
2023/12/11 06:25:54;;;;;;;71.83;43.37;;;;;;;;;;4419961;32;418303;-69
2023/12/11 06:28:22;;;;;;;59.23;41.43;;;;;;;;;;4432501;32;318416;-70
2023/12/11 06:30:49;;;;;;;67.83;38.57;;;;;;;;;;4423813;32;318499;-70
2023/12/11 06:33:16;;;;;;;85.00;45.47;;;;;;;;;;4433108;32;318412;-69
2023/12/11 06:35:43;;;;;;;107.43;56.13;;;;;;;;;;4423415;32;318618;-69
2023/12/11 06:38:10;;;;;;;72.83;44.57;;;;;;;;;;4434065;32;319060;-69
2023/12/11 06:40:37;;;;;;;75.13;43.50;;;;;;;;;;4414779;32;318627;-69
2023/12/11 06:43:05;;;;;;;81.40;50.03;;;;;;;;;;4432697;32;318094;-70
2023/12/11 06:45:33;;;;;;;92.60;57.63;;;;;;;;;;4422739;32;318488;-69
2023/12/11 06:48:00;;;;;;;80.17;49.97;;;;;;;;;;4433981;32;319008;-69
2023/12/11 06:50:27;;;;;;;78.17;45.90;;;;;;;;;;4424241;32;318871;-69
2023/12/11 06:52:54;;;;;;;57.57;36.83;;;;;;;;;;4433962;32;318809;-71
2023/12/11 06:55:21;;;;;;;51.13;33.97;;;;;;;;;;4434234;32;319072;-69
2023/12/11 06:57:48;;;;;;;44.07;28.00;;;;;;;;;;4423593;32;318873;-70
2023/12/11 07:00:15;;;;;;;43.93;24.93;;;;;;;;;;4433338;32;318569;-70
2023/12/11 07:02:44;;;;;;;37.67;23.87;;;;;;;;;;4423476;32;318760;-70
2023/12/11 07:05:11;;;;;;;42.27;24.27;;;;;;;;;;4432685;32;318860;-70
2023/12/11 07:07:38;;;;;;;48.73;27.73;;;;;;;;;;4421715;32;318722;-71
2023/12/11 07:10:06;;;;;;;54.07;32.80;;;;;;;;;;4432134;32;341400;-70
2023/12/11 07:12:33;;;;;;;57.77;35.23;;;;;;;;;;4422020;32;346932;-70
2023/12/11 07:15:00;;;;;;;57.37;35.20;;;;;;;;;;4431389;32;355342;-70
2023/12/11 07:17:27;;;;;;;72.53;38.65;;;;;;;;;;4431848;32;317941;-71
2023/12/11 07:19:56;;;;;;;64.13;37.23;;;;;;;;;;4432854;32;318664;-70
2023/12/11 07:22:24;;;;;;;70.57;40.93;;;;;;;;;;4433095;32;325922;-70
2023/12/11 07:24:51;;;;;;;63.53;40.27;;;;;;;;;;4420546;32;355946;-70
2023/12/11 07:27:18;;;;;;;67.37;40.03;;;;;;;;;;4432610;32;333048;-70
2023/12/11 07:29:45;;;;;;;75.77;47.63;;;;;;;;;;4422979;32;319033;-70
2023/12/11 07:32:12;;;;;;;69.50;43.97;;;;;;;;;;4431418;32;344826;-71
2023/12/11 07:34:42;;;;;;;71.43;42.37;;;;;;;;;;4422590;32;318579;-70
2023/12/11 07:37:11;;;;;;;73.17;41.37;;;;;;;;;;4433033;32;317953;-71
2023/12/11 07:39:38;;;;;;;61.30;33.47;;;;;;;;;;4421595;32;318595;-71
2023/12/11 07:42:06;;;;;;;46.63;29.13;;;;;;;;;;4433265;32;318368;-71
2023/12/11 07:44:33;;;;;;;53.20;34.53;;;;;;;;;;4421420;32;318242;-71
2023/12/11 07:47:00;;;;;;;55.70;33.53;;;;;;;;;;4432031;32;318255;-72
2023/12/11 07:49:27;;;;;;;68.20;39.30;;;;;;;;;;4430439;32;344988;-72
2023/12/11 07:51:54;;;;;;;74.63;43.70;;;;;;;;;;4417696;32;419676;-73
2023/12/11 07:54:22;;;;;;;53.17;34.07;;;;;;;;;;4432417;32;318651;-71
2023/12/11 07:56:49;;;;;;;55.67;32.93;;;;;;;;;;4420665;32;318616;-72
2023/12/11 07:59:16;;;;;;;56.83;32.07;;;;;;;;;;4432786;32;318450;-71
2023/12/11 08:01:43;;;;;;;44.10;27.43;;;;;;;;;;4422146;32;318079;-72
2023/12/11 08:04:10;;;;;;;52.20;25.77;;;;;;;;;;4431590;32;318713;-71
2023/12/11 08:06:41;;;;;;;39.50;25.07;;;;;;;;;;4421421;32;318628;-73
2023/12/11 08:09:09;;;;;;;44.27;26.03;;;;;;;;;;4432235;32;318844;-72
2023/12/11 08:11:37;;;;;;;52.10;27.37;;;;;;;;;;4422359;32;318741;-71
2023/12/11 08:14:05;;;;;;;42.03;27.20;;;;;;;;;;4432682;32;318641;-72
2023/12/11 08:16:32;;;;;;;57.43;28.83;;;;;;;;;;4421331;32;317811;-72
2023/12/11 08:18:59;;;;;;;45.57;25.47;;;;;;;;;;4432721;32;318556;-72
2023/12/11 08:21:26;;;;;;;44.40;30.07;;;;;;;;;;4432596;32;317984;-72
2023/12/11 08:23:53;;;;;;;51.40;32.23;;;;;;;;;;4419036;32;417491;-72
2023/12/11 08:26:21;;;;;;;49.07;28.67;;;;;;;;;;4433040;32;318426;-72
2023/12/11 08:28:50;;;;;;;45.33;28.60;;;;;;;;;;4422322;32;318717;-73
2023/12/11 08:31:17;;;;;;;46.03;28.70;;;;;;;;;;4431872;32;318749;-72
2023/12/11 08:33:44;;;;;;;55.07;29.77;;;;;;;;;;4422081;32;318974;-71
2023/12/11 08:36:12;;;;;;;40.50;25.33;;;;;;;;;;4432526;32;318548;-72
2023/12/11 08:38:39;;;;;;;44.87;25.77;;;;;;;;;;4420877;32;317954;-73
2023/12/11 08:41:06;;;;;;;33.53;22.10;;;;;;;;;;4431198;32;318907;-72
2023/12/11 08:43:33;;;;;;;28.63;17.67;;;;;;;;;;4421487;32;318168;-73
2023/12/11 08:46:02;;;;;;;28.87;17.80;;;;;;;;;;4432500;32;319001;-74
2023/12/11 08:48:29;;;;;;;23.90;15.87;;;;;;;;;;4421440;32;318829;-73
2023/12/11 08:50:56;;;;;;;38.73;16.00;;;;;;;;;;4432092;32;317729;-74
2023/12/11 08:53:23;;;;;;;21.63;14.67;;;;;;;;;;4432125;32;318038;-72
2023/12/11 08:55:51;;;;;;;26.70;13.43;;;;;;;;;;4421932;32;318696;-72
2023/12/11 08:58:18;;;;;;;21.03;14.57;;;;;;;;;;4431121;32;318553;-72
2023/12/11 09:00:45;;;;;;;27.30;14.63;;;;;;;;;;4420745;32;318705;-72
2023/12/11 09:03:14;;;;;;;28.00;15.33;;;;;;;;;;4432322;32;318646;-72
2023/12/11 09:05:41;;;;;;;25.63;15.20;;;;;;;;;;4421899;32;318702;-72
2023/12/11 09:08:09;;;;;;;25.13;13.23;;;;;;;;;;4431980;32;318545;-73
2023/12/11 09:10:36;;;;;;;32.57;15.50;;;;;;;;;;4421512;32;339961;-71
2023/12/11 09:13:04;;;;;;;25.00;14.67;;;;;;;;;;4431848;32;318554;-72
2023/12/11 09:15:32;;;;;;;29.73;14.73;;;;;;;;;;4421411;32;317843;-71
2023/12/11 09:17:58;;;;;;;19.43;13.57;;;;;;;;;;4431907;32;318355;-72
2023/12/11 09:20:27;;;;;;;18.77;14.43;;;;;;;;;;4431771;32;318553;-71
2023/12/11 09:22:54;;;;;;;22.23;15.63;;;;;;;;;;4418783;32;419243;-72
2023/12/11 09:25:24;;;;;;;22.23;13.67;;;;;;;;;;4430720;32;318564;-72
2023/12/11 09:27:51;;;;;;;19.90;13.13;;;;;;;;;;4419787;32;337230;-71
2023/12/11 09:30:18;;;;;;;23.20;13.93;;;;;;;;;;4430733;32;319186;-72
2023/12/11 09:32:45;;;;;;;20.40;11.70;;;;;;;;;;4419405;32;318392;-72
2023/12/11 09:35:13;;;;;;;17.70;11.87;;;;;;;;;;4430742;32;318500;-73
2023/12/11 09:37:42;;;;;;;17.47;12.57;;;;;;;;;;4419733;32;343757;-72
2023/12/11 09:40:11;;;;;;;14.33;11.03;;;;;;;;;;4431813;32;318607;-72
2023/12/11 09:42:40;;;;;;;29.30;18.23;;;;;;;;;;4423063;32;318512;-71
2023/12/11 09:45:09;;;;;;;28.20;16.70;;;;;;;;;;4434621;32;318383;-71
2023/12/11 09:47:40;;;;;;;24.53;13.43;;;;;;;;;;4423147;32;318518;-70
2023/12/11 09:50:09;;;;;;;32.17;16.07;;;;;;;;;;4434489;32;318247;-72
2023/12/11 09:52:42;;;;;;;23.73;16.03;;;;;;;;;;4421710;32;347568;-72
2023/12/11 09:55:10;;;;;;;22.67;11.93;;;;;;;;;;4434495;32;318775;-71
2023/12/11 09:57:38;;;;;;;22.50;12.17;;;;;;;;;;4424440;32;318565;-72
2023/12/11 10:00:08;;;;;;;15.30;9.43;;;;;;;;;;4433245;32;318582;-71
2023/12/11 10:02:37;;;;;;;14.77;10.70;;;;;;;;;;4423158;32;317712;-71
2023/12/11 10:05:07;;;;;;;14.77;10.87;;;;;;;;;;4433004;32;318697;-71
2023/12/11 10:07:35;;;;;;;12.40;9.87;;;;;;;;;;4422498;32;318552;-73
2023/12/11 10:12:54;;;;;;;14.67;9.73;;;;;;;;;;4432554;32;20351;-71
2023/12/11 10:15:23;;;;;;;13.47;9.87;;;;;;;;;;4413511;32;315781;-70
2023/12/11 10:18:06;;;;;;;20.03;9.37;;;;;;;;;;4404025;32;316760;-71
2023/12/11 10:20:34;;;;;;;16.27;10.43;;;;;;;;;;4404073;32;317523;-71
2023/12/11 10:23:13;;;;;;;13.70;9.60;;;;;;;;;;4404742;32;317667;-71
2023/12/11 10:25:42;;;;;;;12.67;10.00;;;;;;;;;;4403754;32;316838;-73
2023/12/11 10:28:13;;;;;;;15.77;10.17;;;;;;;;;;4413263;32;318809;-72
2023/12/11 10:30:53;;;;;;;17.83;10.13;;;;;;;;;;4403853;32;318631;-74
2023/12/11 10:33:21;;;;;;;21.00;10.57;;;;;;;;;;4412783;32;318683;-71
2023/12/11 10:35:48;;;;;;;17.67;10.17;;;;;;;;;;4402577;32;318573;-71
2023/12/11 10:38:21;;;;;;;19.40;11.37;;;;;;;;;;4413021;32;317798;-71
2023/12/11 10:40:49;;;;;;;16.80;9.00;;;;;;;;;;4402531;32;318574;-72
2023/12/11 10:43:17;;;;;;;15.00;9.40;;;;;;;;;;4414052;32;317422;-72
2023/12/11 10:45:45;;;;;;;12.33;6.77;;;;;;;;;;4403908;32;318674;-71
2023/12/11 10:48:12;;;;;;;19.90;10.00;;;;;;;;;;4414111;32;318761;-72
2023/12/11 10:50:39;;;;;;;11.80;7.97;;;;;;;;;;4403802;32;319581;-72
2023/12/11 10:53:08;;;;;;;13.87;7.33;;;;;;;;;;4412973;32;318665;-71
2023/12/11 10:55:37;;;;;;;16.60;8.07;;;;;;;;;;4402385;32;327206;-71
2023/12/11 10:58:07;;;;;;;11.53;8.53;;;;;;;;;;4412820;32;318020;-71
2023/12/11 11:00:36;;;;;;;9.50;6.83;;;;;;;;;;4402808;32;319259;-71
2023/12/11 11:03:06;;;;;;;11.20;6.70;;;;;;;;;;4411972;32;355011;-71
2023/12/11 11:05:33;;;;;;;14.17;7.87;;;;;;;;;;4402302;32;318844;-72
2023/12/11 11:08:10;;;;;;;9.33;7.20;;;;;;;;;;4413880;32;318327;-72
2023/12/11 11:10:44;;;;;;;11.63;8.63;;;;;;;;;;4403457;32;317709;-72
2023/12/11 11:13:17;;;;;;;10.50;7.87;;;;;;;;;;4412401;32;318614;-71
2023/12/11 11:15:52;;;;;;;9.60;7.43;;;;;;;;;;4403164;32;318913;-72
2023/12/11 11:18:18;;;;;;;8.70;6.47;;;;;;;;;;4413139;32;316959;-71
2023/12/11 11:21:09;;;;;;;8.77;6.13;;;;;;;;;;4403087;32;317745;-71
2023/12/11 11:23:42;;;;;;;7.00;4.70;;;;;;;;;;4395505;32;317730;-72
2023/12/11 11:26:34;;;;;;;11.83;5.40;;;;;;;;;;4394848;32;317861;-72
2023/12/11 11:29:01;;;;;;;8.43;6.10;;;;;;;;;;4389067;32;418929;-71
2023/12/11 11:31:52;;;;;;;6.07;5.07;;;;;;;;;;4392017;32;348000;-70
2023/12/11 11:34:44;;;;;;;10.40;4.70;;;;;;;;;;4403285;32;317473;-71
2023/12/11 11:37:14;;;;;;;11.03;5.07;;;;;;;;;;4389301;32;418676;-72
2023/12/11 11:39:57;;;;;;;7.77;6.00;;;;;;;;;;4391657;32;318879;-72
2023/12/11 11:42:24;;;;;;;11.23;7.07;;;;;;;;;;4401795;32;317473;-72
2023/12/11 11:44:55;;;;;;;11.67;5.37;;;;;;;;;;4389829;32;318693;-74
2023/12/11 11:47:24;;;;;;;8.77;5.20;;;;;;;;;;4394075;32;316856;-74
2023/12/11 11:49:51;;;;;;;9.37;5.23;;;;;;;;;;4392889;32;316553;-72
2023/12/11 11:52:23;;;;;;;5.73;4.03;;;;;;;;;;4402062;32;316529;-72
2023/12/11 11:54:51;;;;;;;6.53;4.23;;;;;;;;;;4391909;32;316699;-73
2023/12/11 11:57:19;;;;;;;5.67;4.47;;;;;;;;;;4401535;32;316083;-72
2023/12/11 11:59:46;;;;;;;10.97;5.97;;;;;;;;;;4392752;32;316739;-72
2023/12/11 12:02:21;;;;;;;6.70;4.30;;;;;;;;;;4401632;32;317606;-73
2023/12/11 12:04:49;;;;;;;8.07;4.40;;;;;;;;;;4392986;32;316607;-72
2023/12/11 12:07:17;;;;;;;5.57;4.27;;;;;;;;;;4401734;32;316827;-73
2023/12/11 12:09:50;;;;;;;9.87;4.50;;;;;;;;;;4391671;32;316618;-72
2023/12/11 12:12:18;;;;;;;5.57;3.93;;;;;;;;;;4402780;32;316519;-72
2023/12/11 12:14:45;;;;;;;7.40;4.50;;;;;;;;;;4392593;32;317129;-72
2023/12/11 12:17:12;;;;;;;5.37;4.27;;;;;;;;;;4401476;32;316822;-71
2023/12/11 12:19:40;;;;;;;6.43;4.83;;;;;;;;;;4391844;32;316815;-73
2023/12/11 12:22:09;;;;;;;11.17;7.83;;;;;;;;;;4402402;32;316726;-72
2023/12/11 12:24:40;;;;;;;6.40;5.07;;;;;;;;;;4392175;32;317689;-72
2023/12/11 12:27:12;;;;;;;10.53;4.60;;;;;;;;;;4402811;32;316740;-72
2023/12/11 12:29:40;;;;;;;6.03;4.23;;;;;;;;;;4391600;32;317715;-72
2023/12/11 12:32:08;;;;;;;10.33;4.90;;;;;;;;;;4402589;32;316516;-72
2023/12/11 12:34:38;;;;;;;6.50;3.60;;;;;;;;;;4390720;32;317519;-73
2023/12/11 12:37:06;;;;;;;20.10;3.80;;;;;;;;;;4402823;32;316809;-72
2023/12/11 12:39:35;;;;;;;9.47;4.37;;;;;;;;;;4392351;32;317996;-71
2023/12/11 12:42:02;;;;;;;11.13;5.70;;;;;;;;;;4402636;32;316523;-73
2023/12/11 12:44:29;;;;;;;5.60;4.13;;;;;;;;;;4391492;32;317597;-71
2023/12/11 12:47:01;;;;;;;12.47;5.53;;;;;;;;;;4402566;32;316760;-72
2023/12/11 12:49:27;;;;;;;10.83;4.73;;;;;;;;;;4392806;32;317784;-71
2023/12/11 12:51:55;;;;;;;8.90;4.70;;;;;;;;;;4402061;32;317654;-72
2023/12/11 12:54:22;;;;;;;10.37;5.57;;;;;;;;;;4401455;32;316584;-72
2023/12/11 12:56:55;;;;;;;8.07;4.83;;;;;;;;;;4391071;32;318861;-73
2023/12/11 12:59:23;;;;;;;5.43;3.90;;;;;;;;;;4401886;32;317908;-72
2023/12/11 13:01:50;;;;;;;6.07;3.50;;;;;;;;;;4390973;32;317630;-72
2023/12/11 13:04:17;;;;;;;5.57;4.83;;;;;;;;;;4401000;32;316877;-73
2023/12/11 13:06:45;;;;;;;5.27;3.40;;;;;;;;;;4390644;32;317620;-73
2023/12/11 13:09:28;;;;;;;7.37;5.10;;;;;;;;;;4402120;32;316976;-72
2023/12/11 13:11:56;;;;;;;14.37;8.80;;;;;;;;;;4389149;32;417685;-72
2023/12/11 13:14:25;;;;;;;14.57;7.30;;;;;;;;;;4400356;32;317941;-72
2023/12/11 13:16:53;;;;;;;20.23;10.43;;;;;;;;;;4388083;32;403907;-72
2023/12/11 13:19:20;;;;;;;25.70;14.57;;;;;;;;;;4402071;32;319613;-75
2023/12/11 13:21:47;;;;;;;20.20;12.57;;;;;;;;;;4389435;32;325400;-76
2023/12/11 13:24:14;;;;;;;16.73;9.47;;;;;;;;;;4401442;32;318946;-76
2023/12/11 13:26:41;;;;;;;23.23;8.73;;;;;;;;;;4390380;32;318709;-76
2023/12/11 13:29:10;;;;;;;9.83;6.80;;;;;;;;;;4400825;32;318676;-76
2023/12/11 13:31:37;;;;;;;9.77;5.60;;;;;;;;;;4391868;32;317641;-77
2023/12/11 13:34:04;;;;;;;9.47;6.23;;;;;;;;;;4401918;32;317889;-75
2023/12/11 13:36:31;;;;;;;5.10;4.53;;;;;;;;;;4391700;32;317622;-74
2023/12/11 13:39:00;;;;;;;12.00;6.00;;;;;;;;;;4401549;32;317065;-77
2023/12/11 13:41:27;;;;;;;12.77;5.63;;;;;;;;;;4400149;32;334259;-77
2023/12/11 13:47:10;;;;;;;7.30;5.40;;;;;;;;;;3781380;30;318511;-79
2023/12/11 13:49:36;;;;;;;9.97;5.77;;;;;;;;;;4361391;32;317577;-79
2023/12/11 13:52:04;;;;;;;8.67;5.87;;;;;;;;;;4370407;32;317491;-77
2023/12/11 13:54:30;;;;;;;12.00;8.63;;;;;;;;;;4361753;32;317676;-78
2023/12/11 13:56:58;;;;;;;16.23;8.40;;;;;;;;;;4378053;32;318601;-78
2023/12/11 13:59:24;;;;;;;20.77;9.50;;;;;;;;;;4356368;32;318567;-78
2023/12/11 14:01:51;;;;;;;26.10;10.07;;;;;;;;;;4357010;32;318996;-78
2023/12/11 14:04:20;;;;;;;23.70;11.10;;;;;;;;;;4371219;32;319727;-78
2023/12/11 14:06:47;;;;;;;19.57;12.93;;;;;;;;;;4361714;32;319484;-77
2023/12/11 14:09:14;;;;;;;19.07;11.93;;;;;;;;;;4371458;32;319003;-78
2023/12/11 14:11:41;;;;;;;20.00;12.83;;;;;;;;;;4361567;32;319689;-79
2023/12/11 14:14:08;;;;;;;23.43;14.17;;;;;;;;;;4371201;32;319835;-79
2023/12/11 14:16:36;;;;;;;30.07;17.00;;;;;;;;;;4372490;32;319384;-79
2023/12/11 14:19:03;;;;;;;50.77;21.17;;;;;;;;;;4386560;32;320065;-79
2023/12/11 14:21:32;;;;;;;29.47;18.30;;;;;;;;;;4376826;32;319603;-77